createdAt,value
2022-12-22T00:02:52.426Z,90.30
2022-12-22T00:08:12.480Z,89.44
2022-12-22T00:13:34.262Z,89.57
2022-12-22T00:18:54.161Z,89.04
2022-12-22T00:24:13.809Z,89.79
2022-12-22T00:29:34.390Z,89.77
2022-12-22T00:35:00.302Z,89.94
2022-12-22T00:40:20.927Z,89.86
2022-12-22T00:45:41.415Z,89.20
2022-12-22T00:51:01.576Z,90.40
2022-12-22T00:56:25.685Z,89.65
2022-12-22T01:01:45.792Z,90.54
2022-12-22T01:07:05.923Z,90.14
2022-12-22T01:12:35.672Z,89.81
2022-12-22T01:17:55.576Z,89.18
2022-12-22T01:23:15.605Z,89.73
2022-12-22T01:28:36.304Z,89.76
2022-12-22T01:33:56.186Z,90.05
2022-12-22T01:39:15.940Z,89.92
2022-12-22T01:44:36.982Z,90.67
2022-12-22T01:50:02.226Z,89.97
2022-12-22T01:55:27.796Z,89.67
2022-12-22T02:00:48.154Z,89.51
2022-12-22T02:06:29.451Z,89.88
2022-12-22T02:11:58.511Z,89.65
2022-12-22T02:17:33.974Z,89.21
2022-12-22T02:23:05.190Z,89.97
2022-12-22T02:28:25.403Z,90.33
2022-12-22T02:33:45.549Z,90.22
2022-12-22T02:39:37.903Z,90.05
2022-12-22T02:45:07.830Z,89.90
2022-12-22T02:50:38.661Z,89.55
2022-12-22T02:55:58.967Z,89.64
2022-12-22T03:01:21.678Z,89.91
2022-12-22T03:06:41.693Z,90.06
2022-12-22T03:12:01.615Z,89.80
2022-12-22T03:17:22.051Z,89.80
2022-12-22T03:22:41.744Z,89.71
2022-12-22T03:27:43.135Z,88.98
2022-12-22T03:32:44.537Z,88.37
2022-12-22T03:37:45.930Z,88.73
2022-12-22T03:43:06.065Z,88.74
2022-12-22T03:48:07.487Z,88.38
2022-12-22T03:53:08.952Z,88.39
2022-12-22T03:58:10.361Z,88.14
2022-12-22T04:03:11.991Z,88.24
2022-12-22T04:08:13.561Z,89.09
2022-12-22T04:13:14.949Z,88.55
2022-12-22T04:18:16.356Z,87.20
2022-12-22T04:23:17.765Z,87.15
2022-12-22T04:28:19.240Z,87.17
2022-12-22T04:33:20.689Z,87.91
2022-12-22T04:38:22.108Z,88.33
2022-12-22T04:43:23.501Z,89.68
2022-12-22T04:48:26.797Z,89.47
2022-12-22T04:53:30.053Z,89.28
2022-12-22T04:58:32.543Z,89.41
2022-12-22T05:03:34.021Z,90.01
2022-12-22T05:08:35.685Z,89.26
2022-12-22T05:13:37.505Z,89.83
2022-12-22T05:18:40.076Z,89.75
2022-12-22T05:23:42.417Z,89.42
2022-12-22T05:28:46.197Z,89.31
2022-12-22T05:33:48.184Z,90.09
2022-12-22T05:38:49.627Z,89.44
2022-12-22T05:43:51.022Z,89.52
2022-12-22T05:48:52.418Z,89.51
2022-12-22T05:53:53.847Z,89.81
2022-12-22T05:58:55.340Z,89.55
2022-12-22T06:04:00.418Z,89.69
2022-12-22T06:09:02.252Z,89.75
2022-12-22T06:14:03.649Z,90.10
2022-12-22T06:19:05.185Z,89.99
2022-12-22T06:24:07.058Z,89.95
2022-12-22T06:29:08.492Z,89.84
2022-12-22T06:34:11.037Z,90.45
2022-12-22T06:39:13.959Z,89.92
2022-12-22T06:44:15.309Z,90.90
2022-12-22T06:49:16.701Z,90.15
2022-12-22T06:54:23.955Z,89.62
2022-12-22T06:59:27.485Z,89.83
2022-12-22T07:04:29.666Z,90.27
2022-12-22T07:09:31.086Z,89.73
2022-12-22T07:14:32.539Z,90.21
2022-12-22T07:19:33.980Z,90.00
2022-12-22T07:24:35.430Z,89.76
2022-12-22T07:29:37.037Z,89.70
2022-12-22T07:34:38.460Z,88.96
2022-12-22T07:39:39.880Z,89.66
2022-12-22T07:44:41.309Z,88.88
2022-12-22T07:50:01.059Z,89.40
2022-12-22T07:55:02.478Z,88.89
2022-12-22T08:00:04.702Z,88.60
2022-12-22T08:05:13.655Z,88.37
2022-12-22T08:10:16.123Z,88.99
2022-12-22T08:15:19.030Z,88.39
2022-12-22T08:26:01.023Z,88.55
2022-12-22T08:31:04.333Z,88.89
2022-12-22T08:36:08.648Z,88.74
2022-12-22T08:41:55.982Z,88.76
2022-12-22T08:47:02.215Z,89.02
2022-12-22T08:52:05.584Z,88.77
2022-12-22T08:57:10.931Z,88.67
2022-12-22T09:02:13.237Z,88.53
2022-12-22T09:07:16.116Z,88.66
2022-12-22T09:12:18.094Z,88.41
2022-12-22T09:17:19.772Z,88.25
2022-12-22T09:22:28.141Z,87.32
2022-12-22T09:27:33.442Z,87.34
2022-12-22T09:32:35.114Z,87.00
2022-12-22T09:37:43.452Z,86.71
2022-12-22T09:42:59.189Z,86.72
2022-12-22T09:48:11.850Z,86.90
2022-12-22T09:53:28.758Z,86.56
2022-12-22T09:58:44.147Z,86.75
2022-12-22T10:04:05.475Z,87.02
2022-12-22T10:09:48.700Z,86.49
2022-12-22T10:14:51.398Z,86.46
2022-12-22T10:19:54.896Z,86.00
2022-12-22T10:24:57.564Z,85.54
2022-12-22T10:37:00.568Z,84.65
2022-12-22T10:42:13.694Z,85.36
2022-12-22T10:53:58.144Z,85.79
2022-12-22T10:59:02.982Z,85.37
2022-12-22T11:04:23.758Z,85.07
2022-12-22T11:09:35.332Z,85.29
2022-12-22T11:14:52.424Z,85.13
2022-12-22T11:20:20.795Z,85.22
2022-12-22T11:25:36.773Z,85.50
2022-12-22T11:30:44.606Z,86.02
2022-12-22T11:36:15.821Z,86.19
2022-12-22T11:41:50.089Z,86.13
2022-12-22T11:46:58.729Z,86.47
2022-12-22T11:52:08.357Z,86.67
2022-12-22T11:57:28.432Z,86.83
2022-12-22T12:02:45.373Z,86.54
2022-12-22T12:08:09.983Z,86.15
2022-12-22T12:14:19.462Z,86.29
2022-12-22T12:19:28.820Z,85.66
2022-12-22T12:24:45.433Z,85.68
2022-12-22T12:30:35.625Z,85.57
2022-12-22T12:35:40.526Z,85.11
2022-12-22T12:40:55.735Z,84.78
2022-12-22T12:45:57.594Z,84.16
2022-12-22T12:50:59.626Z,83.72
2022-12-22T12:56:05.072Z,83.19
2022-12-22T13:01:13.558Z,82.83
2022-12-22T13:06:52.236Z,82.38
2022-12-22T13:12:12.187Z,82.04
2022-12-22T13:17:51.965Z,81.84
2022-12-22T13:22:56.488Z,81.61
2022-12-22T13:28:01.921Z,81.19
2022-12-22T13:33:15.217Z,81.35
2022-12-22T13:38:31.343Z,81.30
2022-12-22T13:43:36.337Z,81.66
2022-12-22T13:48:48.925Z,81.80
2022-12-22T13:54:11.896Z,81.74
2022-12-22T13:59:40.644Z,82.17
2022-12-22T14:05:24.350Z,81.75
2022-12-22T14:10:34.205Z,81.69
2022-12-22T14:15:35.759Z,81.78
2022-12-22T14:20:39.993Z,81.69
2022-12-22T14:25:44.550Z,81.35
2022-12-22T14:30:50.371Z,81.50
2022-12-22T14:35:52.062Z,82.05
2022-12-22T14:40:57.683Z,82.44
2022-12-22T14:46:07.244Z,81.94
2022-12-22T14:51:09.242Z,82.71
2022-12-22T14:56:15.470Z,83.24
2022-12-22T15:01:28.120Z,83.23
2022-12-22T15:06:29.701Z,83.26
2022-12-22T15:11:31.480Z,83.90
2022-12-22T15:16:32.962Z,84.46
2022-12-22T15:21:35.491Z,85.76
2022-12-22T15:26:38.061Z,86.67
2022-12-22T15:31:41.317Z,87.69
2022-12-22T15:36:42.791Z,88.86
2022-12-22T15:41:45.120Z,89.95
2022-12-22T15:46:54.338Z,91.30
2022-12-22T15:52:00.411Z,92.44
2022-12-22T15:57:02.038Z,93.48
2022-12-22T16:02:03.605Z,93.48
2022-12-22T16:07:05.715Z,93.79
2022-12-22T16:12:18.629Z,94.32
2022-12-22T16:17:23.311Z,94.49
2022-12-22T16:22:42.723Z,94.99
2022-12-22T16:27:47.670Z,94.98
2022-12-22T16:32:49.991Z,95.75
2022-12-22T16:37:51.649Z,95.92
2022-12-22T16:48:51.706Z,96.37
2022-12-22T16:53:54.049Z,95.94
2022-12-22T16:58:56.016Z,96.56
2022-12-22T17:04:02.589Z,96.95
2022-12-22T17:09:07.183Z,96.49
2022-12-22T17:14:20.626Z,96.93
2022-12-22T17:19:22.047Z,97.21
2022-12-22T17:24:28.328Z,96.32
2022-12-22T17:29:30.128Z,97.30
2022-12-22T17:34:31.666Z,97.25
2022-12-22T17:39:33.791Z,96.62
2022-12-22T17:44:35.244Z,97.00
2022-12-22T17:49:36.867Z,96.55
2022-12-22T17:54:38.259Z,95.92
2022-12-22T17:59:39.712Z,97.15
2022-12-22T18:04:41.178Z,96.27
2022-12-22T18:09:43.525Z,97.53
2022-12-22T18:14:45.049Z,96.59
2022-12-22T18:19:46.690Z,96.79
2022-12-22T18:24:52.824Z,97.02
2022-12-22T18:29:54.380Z,96.57
2022-12-22T18:34:55.860Z,96.45
2022-12-22T18:39:57.290Z,96.67
2022-12-22T18:44:58.725Z,95.34
2022-12-22T18:50:02.780Z,95.05
2022-12-22T18:55:05.448Z,95.06
2022-12-22T19:00:13.927Z,94.91
2022-12-22T19:05:20.066Z,95.69
2022-12-22T19:10:38.986Z,95.23
2022-12-22T19:15:40.610Z,94.54
2022-12-22T19:20:42.041Z,93.73
2022-12-22T19:25:45.662Z,92.57
2022-12-22T19:30:47.201Z,93.29
2022-12-22T19:35:48.689Z,94.22
2022-12-22T19:40:52.525Z,93.08
2022-12-22T19:45:54.321Z,93.58
2022-12-22T19:50:55.812Z,93.35
2022-12-22T19:55:57.773Z,93.35
2022-12-22T20:00:59.392Z,93.30
2022-12-22T20:06:00.829Z,94.25
2022-12-22T20:11:02.578Z,94.61
2022-12-22T20:16:04.220Z,95.12
2022-12-22T20:21:10.712Z,94.41
2022-12-22T20:26:16.423Z,94.81
2022-12-22T20:31:21.369Z,95.24
2022-12-22T20:36:26.424Z,95.24
2022-12-22T20:41:28.098Z,95.28
2022-12-22T20:46:30.074Z,94.96
2022-12-22T20:51:33.516Z,95.16
2022-12-22T20:56:38.059Z,94.59
2022-12-22T21:01:39.775Z,95.33
2022-12-22T21:06:53.299Z,93.65
2022-12-22T21:11:54.692Z,93.95
2022-12-22T21:16:56.392Z,93.13
2022-12-22T21:21:57.842Z,93.04
2022-12-22T21:26:59.469Z,92.22
2022-12-22T21:32:00.889Z,92.48
2022-12-22T21:37:03.050Z,94.01
2022-12-22T21:42:05.459Z,94.41
2022-12-22T21:47:06.932Z,94.71
2022-12-22T21:52:08.437Z,94.04
2022-12-22T21:57:15.704Z,94.62
2022-12-22T22:02:18.559Z,93.77
2022-12-22T22:07:19.979Z,93.05
2022-12-22T22:12:33.287Z,94.13
2022-12-22T22:17:34.747Z,94.46
2022-12-22T22:22:36.397Z,94.70
2022-12-22T22:27:42.921Z,94.61
2022-12-22T22:32:48.358Z,93.66
2022-12-22T22:37:51.259Z,93.74
2022-12-22T22:42:52.752Z,93.95
2022-12-22T22:47:54.251Z,94.48
2022-12-22T22:52:55.872Z,93.96
2022-12-22T22:57:57.264Z,94.18
2022-12-22T23:03:00.397Z,93.31
2022-12-22T23:08:02.056Z,92.97
2022-12-22T23:13:04.633Z,92.69
2022-12-22T23:18:06.043Z,92.79
2022-12-22T23:23:07.449Z,92.52
2022-12-22T23:28:09.256Z,92.17
2022-12-22T23:33:11.170Z,92.20
2022-12-22T23:38:12.887Z,92.99
2022-12-22T23:43:14.850Z,93.59
2022-12-22T23:48:16.467Z,94.46
2022-12-22T23:53:17.902Z,93.88
2022-12-22T23:58:19.381Z,94.58
